Time;durP1;ratioP1;P1;durP2;ratioP2;P2;SDS_P1;SDS_P2;PMS_P1;PMS_P2;Temp;Humidity;BMP_temperature;BMP_pressure;BME280_temperature;BME280_humidity;BME280_pressure;Samples;Min_cycle;Max_cycle;Signal;HPM_P1;HPM_P2
2023/05/02 00:02:12;;;;;;;14.87;10.10;;;;;;;9.05;100.00;96361.81;10496274;28;20243;-65
2023/05/02 00:07:12;;;;;;;16.77;10.60;;;;;;;8.91;100.00;96370.19;10496574;28;20321;-65
2023/05/02 00:12:12;;;;;;;16.70;10.50;;;;;;;8.85;100.00;96370.81;10495812;28;20226;-65
2023/05/02 00:17:19;;;;;;;15.20;10.47;;;;;;;8.76;100.00;96380.41;10496149;28;20277;-64
2023/05/02 00:22:20;;;;;;;14.67;10.47;;;;;;;8.71;100.00;96388.72;10495671;28;20246;-66
2023/05/02 00:27:20;;;;;;;15.87;11.63;;;;;;;8.54;100.00;96390.34;10495419;28;20282;-64
2023/05/02 00:32:21;;;;;;;13.80;11.33;;;;;;;8.66;100.00;96395.34;10495302;28;20716;-65
2023/05/02 00:37:25;;;;;;;18.30;12.30;;;;;;;8.68;100.00;96394.22;10477091;28;20193;-65
2023/05/02 00:42:25;;;;;;;14.63;10.93;;;;;;;8.78;100.00;96388.09;10494154;28;20203;-65
2023/05/02 00:47:26;;;;;;;16.57;11.17;;;;;;;8.78;100.00;96383.69;10494827;28;20195;-64
2023/05/02 00:52:27;;;;;;;14.20;9.83;;;;;;;8.80;100.00;96383.53;10476692;28;20775;-65
2023/05/02 00:57:27;;;;;;;14.43;9.93;;;;;;;8.78;100.00;96375.84;10494767;28;20197;-65
2023/05/02 01:02:48;;;;;;;19.70;10.53;;;;;;;8.72;100.00;96381.69;10476122;28;20310;-64
2023/05/02 01:08:07;;;;;;;12.67;9.63;;;;;;;8.71;100.00;96390.47;10460039;28;20681;-65
2023/05/02 01:13:11;;;;;;;13.67;10.37;;;;;;;8.74;100.00;96379.72;10476048;28;20219;-65
2023/05/02 01:18:13;;;;;;;14.57;9.43;;;;;;;8.82;100.00;96392.84;10476449;28;20183;-65
2023/05/02 01:23:28;;;;;;;13.17;9.53;;;;;;;8.83;100.00;96385.84;10459328;28;20211;-65
2023/05/02 01:28:42;;;;;;;11.83;9.67;;;;;;;8.71;100.00;96395.69;10494130;28;20240;-65
2023/05/02 01:33:43;;;;;;;11.73;8.87;;;;;;;8.84;100.00;96392.69;10475576;28;20357;-64
2023/05/02 01:38:44;;;;;;;12.73;8.97;;;;;;;8.95;100.00;96386.41;10475958;28;20553;-65
2023/05/02 01:43:44;;;;;;;11.20;8.93;;;;;;;8.92;100.00;96383.09;10458983;28;20206;-66
2023/05/02 01:48:48;;;;;;;11.47;9.00;;;;;;;8.86;100.00;96386.34;10493504;28;20668;-66
2023/05/02 01:53:49;;;;;;;13.40;9.03;;;;;;;8.78;100.00;96375.84;10481195;28;20215;-65
2023/05/02 01:58:51;;;;;;;12.17;8.73;;;;;;;8.77;100.00;96384.66;10483648;28;20191;-66
2023/05/02 02:03:53;;;;;;;13.10;9.10;;;;;;;8.92;100.00;96385.72;10483200;28;20296;-65
2023/05/02 02:08:54;;;;;;;10.63;8.47;;;;;;;8.98;100.00;96378.25;10466842;28;20183;-66
2023/05/02 02:14:05;;;;;;;12.27;8.70;;;;;;;9.13;100.00;96366.25;10466157;28;20230;-66
2023/05/02 02:19:07;;;;;;;12.53;8.60;;;;;;;9.21;100.00;96370.69;10500740;28;20282;-65
2023/05/02 02:24:08;;;;;;;12.50;8.97;;;;;;;9.24;100.00;96370.38;10482635;28;20682;-66
2023/05/02 02:29:08;;;;;;;12.43;8.53;;;;;;;9.36;100.00;96371.75;10465880;28;20294;-66
2023/05/02 02:34:09;;;;;;;11.30;7.57;;;;;;;9.38;100.00;96371.59;10499832;28;20234;-65
2023/05/02 02:39:34;;;;;;;11.63;7.73;;;;;;;9.35;100.00;96372.72;10482278;28;20552;-65
2023/05/02 02:44:53;;;;;;;10.97;7.63;;;;;;;9.25;100.00;96382.50;10499793;28;20202;-64
2023/05/02 02:50:19;;;;;;;10.27;7.53;;;;;;;9.21;100.00;96387.19;10470423;28;20220;-64
2023/05/02 02:55:37;;;;;;;9.93;7.47;;;;;;;9.34;100.00;96399.00;10456591;28;20302;-64
2023/05/02 03:00:38;;;;;;;14.83;7.90;;;;;;;9.52;100.00;96399.72;10457755;28;20188;-64
2023/05/02 03:05:39;;;;;;;11.13;7.63;;;;;;;9.53;100.00;96406.63;10453476;28;20661;-65
2023/05/02 03:10:39;;;;;;;14.10;8.50;;;;;;;9.58;100.00;96403.53;10498591;28;20225;-64
2023/05/02 03:15:50;;;;;;;9.97;7.40;;;;;;;9.62;100.00;96408.28;10480322;28;20207;-63
2023/05/02 03:20:53;;;;;;;12.13;7.60;;;;;;;9.62;100.00;96410.91;10480450;28;20179;-64
2023/05/02 03:25:54;;;;;;;12.10;7.53;;;;;;;9.67;100.00;96414.84;10480114;28;20676;-64
2023/05/02 03:30:57;;;;;;;10.53;7.70;;;;;;;9.51;100.00;96419.03;10479718;28;20214;-65
2023/05/02 03:35:58;;;;;;;10.57;7.77;;;;;;;9.44;100.00;96425.84;10480101;28;20590;-65
2023/05/02 03:40:59;;;;;;;11.80;7.77;;;;;;;9.37;100.00;96437.91;10497098;28;20195;-65
2023/05/02 03:46:05;;;;;;;12.50;7.70;;;;;;;9.33;100.00;96442.63;10497600;28;20179;-64
2023/05/02 03:51:08;;;;;;;9.77;7.43;;;;;;;9.17;100.00;96447.75;10496762;28;20720;-64
2023/05/02 03:56:20;;;;;;;10.60;7.20;;;;;;;9.24;100.00;96451.41;10478912;28;20202;-64
2023/05/02 04:01:30;;;;;;;14.53;7.17;;;;;;;9.24;100.00;96457.44;10478177;28;20276;-65
2023/05/02 04:06:32;;;;;;;10.40;7.17;;;;;;;9.13;100.00;96464.72;10479967;28;20215;-65
2023/05/02 04:11:37;;;;;;;10.93;7.50;;;;;;;9.22;100.00;96475.09;10479853;28;20226;-65
2023/05/02 04:16:39;;;;;;;10.93;7.23;;;;;;;9.14;100.00;96489.88;10477816;28;20228;-65
2023/05/02 04:21:40;;;;;;;10.70;8.33;;;;;;;9.00;100.00;96493.88;10478288;28;20210;-65
2023/05/02 04:26:41;;;;;;;8.67;6.97;;;;;;;9.12;100.00;96503.09;10477517;28;20193;-64
2023/05/02 04:31:44;;;;;;;12.00;7.10;;;;;;;9.03;100.00;96524.91;10477852;28;20307;-64
2023/05/02 04:36:46;;;;;;;11.27;6.90;;;;;;;9.20;100.00;96521.44;10477394;28;20219;-64
2023/05/02 04:41:52;;;;;;;11.03;7.23;;;;;;;9.32;100.00;96535.09;10477116;28;20195;-65
2023/05/02 04:46:54;;;;;;;8.63;6.73;;;;;;;9.35;100.00;96534.78;10477066;28;20627;-64
2023/05/02 04:51:54;;;;;;;9.00;7.07;;;;;;;9.51;100.00;96543.72;10494609;28;20298;-65
2023/05/02 04:56:58;;;;;;;9.27;7.47;;;;;;;9.53;100.00;96555.66;10476751;28;20202;-66
2023/05/02 05:01:59;;;;;;;9.23;6.93;;;;;;;9.44;100.00;96556.59;10496859;23;20242;-65
2023/05/02 05:07:00;;;;;;;10.67;7.43;;;;;;;8.99;100.00;96575.81;10475388;28;20276;-66
2023/05/02 05:12:02;;;;;;;10.33;6.73;;;;;;;9.27;100.00;96573.94;10476018;28;20701;-66
2023/05/02 05:17:05;;;;;;;12.30;7.03;;;;;;;9.38;100.00;96578.94;10475694;28;20532;-66
2023/05/02 05:22:07;;;;;;;10.43;6.97;;;;;;;9.25;100.00;96576.72;10476018;28;20231;-66
2023/05/02 05:27:08;;;;;;;9.33;6.90;;;;;;;9.24;100.00;96584.72;10493311;28;20180;-66
2023/05/02 05:32:09;;;;;;;11.27;7.37;;;;;;;9.32;100.00;96594.41;10474467;28;20249;-66
2023/05/02 05:37:10;;;;;;;8.00;7.20;;;;;;;9.34;100.00;96608.13;10475202;28;20218;-66
2023/05/02 05:42:11;;;;;;;9.77;7.10;;;;;;;9.44;100.00;96607.06;10469374;28;20598;-66
2023/05/02 05:47:18;;;;;;;12.93;7.33;;;;;;;9.21;100.00;96617.19;10474351;28;20193;-66
2023/05/02 05:52:19;;;;;;;9.23;7.47;;;;;;;9.23;100.00;96619.66;10475185;28;20314;-66
2023/05/02 05:57:19;;;;;;;11.30;6.60;;;;;;;9.75;100.00;96634.59;10493490;28;20194;-66
2023/05/02 06:02:20;;;;;;;9.30;6.50;;;;;;;9.93;100.00;96637.97;10483053;28;20658;-66
2023/05/02 06:07:20;;;;;;;11.47;6.57;;;;;;;10.32;100.00;96641.94;10468544;28;20653;-66
2023/05/02 06:12:21;;;;;;;10.67;6.43;;;;;;;10.53;100.00;96644.22;10492681;28;20268;-67
2023/05/02 06:17:21;;;;;;;8.50;6.32;;;;;;;10.85;98.94;96632.19;10471515;28;20196;-67
2023/05/02 06:22:23;;;;;;;9.90;6.50;;;;;;;10.73;97.02;96634.28;10453130;28;20673;-66
2023/05/02 06:27:23;;;;;;;7.63;5.83;;;;;;;11.01;98.07;96645.34;10468879;28;20219;-67
2023/05/02 06:32:23;;;;;;;11.93;6.10;;;;;;;11.19;94.42;96628.66;10491884;28;20230;-67
2023/05/02 06:37:24;;;;;;;16.00;6.97;;;;;;;10.99;95.87;96651.72;10492650;28;20203;-67
2023/05/02 06:42:24;;;;;;;12.60;6.28;;;;;;;10.88;93.06;96648.41;10499485;28;20206;-67
2023/05/02 06:47:25;;;;;;;9.40;5.85;;;;;;;10.88;92.95;96656.28;10499381;28;20568;-67
2023/05/02 06:52:25;;;;;;;9.65;6.38;;;;;;;11.57;93.10;96663.09;10499113;28;20223;-66
2023/05/02 06:57:26;;;;;;;6.80;5.55;;;;;;;12.10;89.01;96658.34;10498770;28;20286;-66
2023/05/02 07:02:26;;;;;;;9.18;5.80;;;;;;;11.90;89.31;96657.84;10491501;28;20314;-67
2023/05/02 07:07:26;;;;;;;11.15;5.93;;;;;;;11.98;87.59;96662.28;10494912;28;20215;-67
2023/05/02 07:12:27;;;;;;;8.32;5.95;;;;;;;12.80;82.83;96628.69;10496389;28;20327;-68
2023/05/02 07:17:27;;;;;;;8.57;5.10;;;;;;;12.81;82.05;96651.34;10478183;28;20183;-67
2023/05/02 07:22:28;;;;;;;8.55;6.05;;;;;;;12.00;84.05;96676.88;10476348;28;20211;-68
2023/05/02 07:27:28;;;;;;;6.68;5.65;;;;;;;12.72;85.94;96699.69;10484364;28;20191;-67
2023/05/02 07:32:30;;;;;;;9.38;5.38;;;;;;;13.16;80.02;96664.94;10454550;28;20310;-68
2023/05/02 07:37:34;;;;;;;6.10;4.30;;;;;;;13.39;77.63;96664.19;10455107;28;20673;-68
2023/05/02 07:42:35;;;;;;;7.00;4.03;;;;;;;13.50;73.55;96629.56;10491571;28;20208;-68
2023/05/02 07:47:35;;;;;;;6.38;4.63;;;;;;;13.30;73.01;96644.97;10472849;28;20533;-68
2023/05/02 07:52:36;;;;;;;8.18;4.65;;;;;;;12.73;74.82;96669.78;10472329;28;20573;-68
2023/05/02 07:57:36;;;;;;;5.25;4.18;;;;;;;12.36;74.80;96671.25;10475327;28;20252;-67
2023/05/02 08:02:36;;;;;;;4.25;3.85;;;;;;;13.34;72.87;96661.28;10494847;28;20262;-67
2023/05/02 08:07:37;;;;;;;8.00;4.07;;;;;;;13.29;73.70;96695.97;10491340;28;20693;-67
2023/05/02 08:12:39;;;;;;;5.80;4.50;;;;;;;13.40;74.84;96726.34;10491856;28;20214;-68
2023/05/02 08:17:39;;;;;;;5.30;4.72;;;;;;;13.84;73.30;96715.19;10492292;28;20195;-67
2023/05/02 08:22:39;;;;;;;6.85;4.95;;;;;;;13.03;77.21;96756.75;10489824;28;20207;-66
2023/05/02 08:27:40;;;;;;;5.38;4.88;;;;;;;14.00;73.91;96731.84;10478960;28;20191;-66
2023/05/02 08:32:40;;;;;;;8.15;5.40;;;;;;;14.65;72.99;96742.78;10492464;28;20234;-67
2023/05/02 08:37:40;;;;;;;5.90;4.78;;;;;;;15.00;71.11;96724.59;10493042;28;20205;-67
2023/05/02 08:42:42;;;;;;;6.40;5.25;;;;;;;15.14;68.72;96705.25;10491263;28;20571;-68
2023/05/02 08:47:43;;;;;;;6.75;5.35;;;;;;;14.31;71.71;96746.72;10493067;28;20687;-67
2023/05/02 08:52:44;;;;;;;7.03;5.20;;;;;;;13.36;74.66;96769.78;10474751;28;20337;-66
2023/05/02 08:57:45;;;;;;;6.57;5.20;;;;;;;13.34;76.34;96792.84;10474262;28;20187;-67
2023/05/02 09:03:16;;;;;;;7.03;5.32;;;;;;;13.30;76.06;96791.50;10473548;28;20243;-67
2023/05/02 09:08:21;;;;;;;6.22;5.07;;;;;;;13.34;75.41;96790.19;10472517;28;20677;-67
2023/05/02 09:13:42;;;;;;;6.80;5.30;;;;;;;12.66;80.14;96850.19;10491822;28;20239;-67
2023/05/02 09:18:44;;;;;;;7.03;5.22;;;;;;;12.84;80.08;96844.72;10490864;28;20183;-67
2023/05/02 09:23:46;;;;;;;6.95;4.88;;;;;;;13.06;77.88;96829.22;10488853;28;20215;-67
2023/05/02 09:28:51;;;;;;;8.35;5.43;;;;;;;13.68;74.51;96784.56;10490350;28;20257;-67
2023/05/02 09:33:52;;;;;;;6.30;4.90;;;;;;;14.05;72.65;96782.19;10491655;28;20222;-67
2023/05/02 09:39:10;;;;;;;8.52;4.80;;;;;;;14.06;70.12;96750.38;10491275;28;20538;-67
2023/05/02 09:44:12;;;;;;;8.63;5.38;;;;;;;14.37;68.27;96740.75;10491349;28;20580;-66
2023/05/02 09:49:18;;;;;;;11.80;5.70;;;;;;;13.89;69.38;96754.16;10489981;28;20175;-66
2023/05/02 09:54:37;;;;;;;9.82;5.18;;;;;;;14.75;66.51;96732.78;10491149;28;20215;-67
2023/05/02 09:59:38;;;;;;;6.55;5.07;;;;;;;14.77;64.39;96712.31;10490995;28;20191;-66
2023/05/02 10:04:39;;;;;;;10.13;5.68;;;;;;;14.78;65.17;96750.91;10490606;28;20231;-67
2023/05/02 10:09:42;;;;;;;8.25;6.13;;;;;;;14.30;66.72;96768.78;10490383;28;20191;-67
2023/05/02 10:14:49;;;;;;;9.55;6.70;;;;;;;14.27;67.86;96785.78;10495429;28;20646;-68
2023/05/02 10:19:58;;;;;;;11.43;7.95;;;;;;;14.37;68.16;96809.25;10496750;28;20805;-67
2023/05/02 10:24:58;;;;;;;7.43;6.07;;;;;;;14.16;68.88;96812.56;10497572;28;20234;-68
2023/05/02 10:29:59;;;;;;;12.15;7.68;;;;;;;14.30;70.71;96853.13;10498409;28;20241;-67
2023/05/02 10:35:04;;;;;;;13.25;8.52;;;;;;;13.80;69.45;96831.56;10497376;28;20234;-67
2023/05/02 10:40:09;;;;;;;11.40;9.13;;;;;;;13.58;72.07;96868.19;10497222;28;20199;-67
2023/05/02 10:45:11;;;;;;;12.70;8.93;;;;;;;14.04;71.42;96846.38;10462113;28;20196;-67
2023/05/02 10:50:12;;;;;;;10.10;8.35;;;;;;;13.32;71.82;96850.00;10455494;28;20349;-67
2023/05/02 10:55:19;;;;;;;9.20;7.40;;;;;;;14.08;69.80;96843.22;10476951;28;20319;-68
2023/05/02 11:00:20;;;;;;;12.55;7.43;;;;;;;14.10;71.28;96853.59;10496156;28;20195;-68
2023/05/02 11:05:21;;;;;;;11.38;8.10;;;;;;;13.51;75.61;96915.44;10540824;22;20648;-65
2023/05/02 11:10:26;;;;;;;12.70;7.97;;;;;;;13.86;73.84;96887.00;10537677;28;20198;-64
2023/05/02 11:15:31;;;;;;;12.00;8.73;;;;;;;13.61;74.94;96906.53;10539091;28;20851;-65
2023/05/02 11:20:38;;;;;;;16.23;8.93;;;;;;;13.48;74.22;96894.72;10538188;28;20194;-65
2023/05/02 11:25:40;;;;;;;11.98;8.77;;;;;;;13.49;74.98;96906.91;10536207;28;20210;-64
2023/05/02 11:30:42;;;;;;;10.88;8.45;;;;;;;13.85;75.37;96905.59;10538318;28;20227;-65
2023/05/02 11:35:44;;;;;;;15.90;9.82;;;;;;;13.61;74.32;96890.72;10513250;28;20249;-65
2023/05/02 11:40:58;;;;;;;11.02;8.73;;;;;;;13.94;71.11;96845.81;10509517;28;20247;-65
2023/05/02 11:46:00;;;;;;;11.60;8.43;;;;;;;14.77;70.31;96862.66;10537744;28;20217;-65
2023/05/02 11:51:05;;;;;;;9.98;8.70;;;;;;;15.47;68.64;96842.91;10537639;28;20691;-66
2023/05/02 11:56:07;;;;;;;13.23;8.45;;;;;;;17.30;63.44;96786.94;10536037;28;20758;-65
2023/05/02 12:01:15;;;;;;;12.70;8.55;;;;;;;17.58;62.53;96793.97;10536881;28;20195;-66
2023/05/02 12:06:17;;;;;;;13.32;8.85;;;;;;;17.69;59.21;96739.56;10502633;28;20634;-65
2023/05/02 12:11:17;;;;;;;14.32;8.88;;;;;;;17.44;60.71;96771.91;10491349;28;20703;-67
2023/05/02 12:16:18;;;;;;;10.32;8.90;;;;;;;17.47;59.68;96758.28;10491502;28;20218;-66
2023/05/02 12:21:18;;;;;;;11.85;8.70;;;;;;;16.91;63.51;96823.59;10490568;28;20234;-66
2023/05/02 12:26:21;;;;;;;11.85;8.52;;;;;;;16.98;63.96;96828.91;10466372;28;20626;-66
2023/05/02 12:31:21;;;;;;;11.23;7.53;;;;;;;17.45;63.28;96824.69;10493653;28;20230;-66
2023/05/02 12:36:22;;;;;;;11.90;8.10;;;;;;;18.41;60.69;96782.28;10494907;28;20211;-66
2023/05/02 12:41:36;;;;;;;12.63;7.68;;;;;;;18.97;56.24;96722.63;10495202;28;20187;-66
2023/05/02 12:46:37;;;;;;;9.13;6.95;;;;;;;18.51;56.29;96734.94;10494155;28;20219;-65
2023/05/02 12:51:38;;;;;;;7.93;6.20;;;;;;;19.00;54.58;96719.56;10494330;28;20226;-66
2023/05/02 12:56:39;;;;;;;9.63;6.20;;;;;;;19.85;52.60;96707.91;10493560;28;20710;-68
2023/05/02 13:01:40;;;;;;;8.77;6.13;;;;;;;20.12;52.91;96727.13;10492748;28;20195;-66
2023/05/02 13:06:41;;;;;;;6.22;5.63;;;;;;;19.50;51.86;96697.69;10531631;28;20338;-64
2023/05/02 13:11:41;;;;;;;8.27;5.70;;;;;;;19.32;53.59;96736.38;10535130;28;20248;-66
2023/05/02 13:16:41;;;;;;;6.28;5.65;;;;;;;18.79;54.79;96755.94;10535681;28;20313;-67
2023/05/02 13:21:45;;;;;;;12.05;6.30;;;;;;;19.82;53.07;96738.41;10517503;28;20243;-67
2023/05/02 13:26:46;;;;;;;9.27;5.72;;;;;;;20.08;54.23;96771.16;10535030;28;20263;-68
2023/05/02 13:31:46;;;;;;;7.45;6.03;;;;;;;19.28;55.48;96784.81;10534482;28;20218;-68
2023/05/02 13:36:46;;;;;;;8.80;6.53;;;;;;;18.71;55.98;96772.91;10534584;28;20206;-67
2023/05/02 13:41:47;;;;;;;7.43;6.32;;;;;;;19.71;55.25;96789.53;10514306;28;20194;-65
2023/05/02 13:46:47;;;;;;;10.63;6.60;;;;;;;20.52;51.63;96740.09;10512467;28;20282;-66
2023/05/02 13:51:47;;;;;;;6.53;5.72;;;;;;;20.69;50.95;96735.06;10501858;28;20218;-67
2023/05/02 13:56:48;;;;;;;7.25;6.03;;;;;;;21.26;48.76;96702.84;10501371;28;20213;-66
2023/05/02 14:01:48;;;;;;;6.68;5.97;;;;;;;20.09;49.07;96671.69;10500932;28;20223;-67
2023/05/02 14:06:48;;;;;;;9.13;5.30;;;;;;;23.75;43.77;96671.56;10536089;28;20283;-67
2023/05/02 14:11:49;;;;;;;9.30;5.47;;;;;;;22.96;43.93;96669.53;10546666;28;20222;-66
2023/05/02 14:16:50;;;;;;;6.53;4.93;;;;;;;20.57;48.13;96686.22;10542388;28;20565;-65
2023/05/02 14:21:50;;;;;;;6.97;5.70;;;;;;;19.54;49.99;96698.84;10541854;28;20617;-66
2023/05/02 14:26:50;;;;;;;9.73;6.03;;;;;;;18.76;52.60;96745.75;10541794;28;20612;-65
2023/05/02 14:31:51;;;;;;;8.63;6.00;;;;;;;19.94;50.16;96720.72;10541590;28;20695;-66
2023/05/02 14:36:51;;;;;;;10.30;6.05;;;;;;;19.00;52.79;96765.50;10540874;28;20569;-64
2023/05/02 14:41:52;;;;;;;8.57;6.43;;;;;;;18.90;53.36;96775.75;10541128;28;20626;-66
2023/05/02 14:46:53;;;;;;;9.15;6.88;;;;;;;17.77;55.38;96776.50;10540478;28;20236;-64
2023/05/02 14:51:53;;;;;;;11.95;6.38;;;;;;;18.07;55.38;96795.56;10540722;28;20761;-65
2023/05/02 14:56:54;;;;;;;9.45;6.47;;;;;;;17.92;56.90;96824.88;10540024;28;20220;-65
2023/05/02 15:01:55;;;;;;;10.90;7.38;;;;;;;16.96;57.87;96830.13;10545073;28;20186;-63
2023/05/02 15:06:56;;;;;;;8.30;7.43;;;;;;;16.04;60.96;96880.97;10537815;28;20321;-65
2023/05/02 15:11:57;;;;;;;9.30;7.45;;;;;;;14.85;65.27;96928.50;10537395;28;20211;-66
2023/05/02 15:16:57;;;;;;;11.50;7.55;;;;;;;13.41;74.01;97049.03;10529761;28;20296;-65
2023/05/02 15:21:57;;;;;;;10.02;7.55;;;;;;;13.33;77.80;97076.16;10514304;28;20191;-66
2023/05/02 15:26:58;;;;;;;10.25;7.25;;;;;;;12.97;83.72;97071.19;10516650;28;20217;-67
2023/05/02 15:31:58;;;;;;;12.32;8.45;;;;;;;12.64;87.79;97075.56;10520698;28;20279;-67
2023/05/02 15:37:00;;;;;;;13.15;9.23;;;;;;;12.63;90.96;97073.91;10516373;28;20602;-67
2023/05/02 15:42:03;;;;;;;13.13;9.50;;;;;;;12.54;94.09;97085.38;10523187;28;20274;-67
2023/05/02 15:47:04;;;;;;;20.95;11.43;;;;;;;12.87;92.21;97080.22;10540564;28;20214;-67
2023/05/02 15:52:04;;;;;;;16.50;9.80;;;;;;;13.01;90.97;97075.13;10540930;28;20222;-67
2023/05/02 16:03:26;;;;;;;16.45;9.57;;;;;;;12.43;92.62;97086.50;10535666;28;20222;-66
2023/05/02 16:08:27;;;;;;;10.98;8.07;;;;;;;12.11;97.88;97096.72;10538818;28;20186;-67
2023/05/02 16:13:27;;;;;;;13.30;8.05;;;;;;;11.71;99.23;97111.22;10537562;28;20700;-67
2023/05/02 16:18:27;;;;;;;10.40;8.00;;;;;;;11.42;100.00;97119.34;10535111;28;20190;-67
2023/05/02 16:23:28;;;;;;;16.77;7.60;;;;;;;11.22;100.00;97119.53;10537752;28;20290;-67
2023/05/02 16:28:28;;;;;;;10.30;7.68;;;;;;;11.15;100.00;97130.75;10537536;28;20193;-66
2023/05/02 16:33:29;;;;;;;10.80;7.10;;;;;;;10.94;100.00;97142.38;10537560;28;20968;-66
2023/05/02 16:38:29;;;;;;;10.77;6.80;;;;;;;11.00;100.00;97144.38;10518562;28;20261;-65
2023/05/02 16:43:30;;;;;;;13.23;7.40;;;;;;;11.12;100.00;97141.53;10512659;28;20199;-65
2023/05/02 16:48:30;;;;;;;11.02;7.35;;;;;;;10.87;100.00;97150.00;10505326;28;20675;-66
2023/05/02 16:53:31;;;;;;;10.40;7.25;;;;;;;10.60;100.00;97158.69;10494378;28;20585;-65
2023/05/02 16:58:31;;;;;;;10.23;7.00;;;;;;;10.43;100.00;97165.53;10494606;28;20298;-66
2023/05/02 17:03:31;;;;;;;13.63;6.87;;;;;;;10.47;100.00;97158.19;10513951;22;20254;-65
2023/05/02 17:08:32;;;;;;;9.83;6.83;;;;;;;10.28;100.00;97180.03;10491195;28;20557;-65
2023/05/02 17:13:33;;;;;;;12.40;6.70;;;;;;;10.39;100.00;97179.88;10491507;28;20670;-65
2023/05/02 17:18:34;;;;;;;11.80;6.28;;;;;;;10.31;100.00;97183.19;10488230;28;20199;-65
2023/05/02 17:23:34;;;;;;;12.93;6.03;;;;;;;10.10;100.00;97180.75;10491920;28;20222;-64
2023/05/02 17:28:35;;;;;;;10.23;6.63;;;;;;;10.03;100.00;97207.63;10493068;28;20282;-65
2023/05/02 17:33:35;;;;;;;9.05;6.22;;;;;;;10.18;100.00;97201.00;10493081;28;20726;-65
2023/05/02 17:38:36;;;;;;;10.15;5.60;;;;;;;10.12;100.00;97210.25;10490468;28;20274;-66
2023/05/02 17:43:36;;;;;;;9.83;5.77;;;;;;;9.98;100.00;97229.00;10491627;28;20207;-65
2023/05/02 17:48:37;;;;;;;9.17;5.97;;;;;;;9.98;100.00;97231.63;10493016;28;20673;-64
2023/05/02 17:53:38;;;;;;;10.98;5.93;;;;;;;9.90;100.00;97234.13;10492408;28;20246;-64
2023/05/02 17:58:38;;;;;;;13.80;6.77;;;;;;;9.82;100.00;97243.47;10464568;28;20195;-64
2023/05/02 18:03:39;;;;;;;16.33;6.90;;;;;;;9.78;100.00;97254.34;10468877;28;20238;-65
2023/05/02 18:08:39;;;;;;;8.37;6.43;;;;;;;9.76;100.00;97258.91;10469813;28;20191;-64
2023/05/02 18:13:40;;;;;;;11.03;6.23;;;;;;;9.75;100.00;97265.91;10469802;28;20223;-65
2023/05/02 18:18:40;;;;;;;9.97;6.10;;;;;;;9.84;100.00;97269.50;10480311;28;20975;-65
2023/05/02 18:23:40;;;;;;;8.87;5.47;;;;;;;9.78;100.00;97264.81;10450582;28;20694;-64
2023/05/02 18:28:41;;;;;;;9.50;5.03;;;;;;;9.80;100.00;97268.13;10450535;28;20228;-65
2023/05/02 18:33:42;;;;;;;7.30;4.57;;;;;;;9.71;99.23;97251.47;10452300;28;20231;-64
2023/05/02 18:38:42;;;;;;;10.87;4.47;;;;;;;9.56;98.77;97260.69;10458357;28;20199;-64
2023/05/02 18:43:42;;;;;;;10.13;4.80;;;;;;;9.63;99.07;97277.47;10457503;28;20215;-64
2023/05/02 18:48:43;;;;;;;11.73;4.93;;;;;;;9.51;100.00;97276.81;10457931;28;20191;-64
2023/05/02 18:53:43;;;;;;;7.30;4.43;;;;;;;9.42;100.00;97298.53;10485598;28;20246;-64
2023/05/02 18:58:44;;;;;;;14.60;4.13;;;;;;;9.34;100.00;97301.81;10498502;28;20214;-65
2023/05/02 19:03:45;;;;;;;9.53;4.40;;;;;;;9.26;100.00;97297.25;10498298;28;20238;-64
2023/05/02 19:08:46;;;;;;;10.67;4.53;;;;;;;9.28;100.00;97307.59;10498045;28;20537;-64
2023/05/02 19:13:46;;;;;;;10.77;4.83;;;;;;;9.07;100.00;97303.25;10498044;28;20226;-64
2023/05/02 19:18:50;;;;;;;12.07;4.70;;;;;;;9.13;100.00;97296.66;10497823;28;20285;-65
2023/05/02 19:23:51;;;;;;;6.67;4.00;;;;;;;9.13;100.00;97301.91;10497148;28;20744;-64
2023/05/02 19:28:51;;;;;;;10.07;4.43;;;;;;;9.21;100.00;97303.84;10497457;28;20680;-65
2023/05/02 19:33:53;;;;;;;7.17;3.93;;;;;;;9.19;100.00;97305.75;10496766;28;20219;-64
2023/05/02 19:38:56;;;;;;;8.33;4.77;;;;;;;9.19;100.00;97308.34;10494693;28;20191;-65
2023/05/02 19:43:58;;;;;;;5.97;3.90;;;;;;;9.21;100.00;97306.47;10493267;28;20253;-65
2023/05/02 19:48:58;;;;;;;14.70;4.43;;;;;;;9.17;100.00;97302.44;10493375;28;20201;-65
2023/05/02 19:53:59;;;;;;;10.97;4.17;;;;;;;9.07;100.00;97312.88;10496227;28;20223;-65
2023/05/02 19:59:00;;;;;;;9.57;4.10;;;;;;;8.87;100.00;97315.41;10495946;28;20187;-64
2023/05/02 20:04:00;;;;;;;7.17;4.37;;;;;;;8.74;100.00;97331.31;10495895;28;20238;-64
2023/05/02 20:09:00;;;;;;;13.20;4.03;;;;;;;8.60;100.00;97330.81;10495438;28;20221;-64
2023/05/02 20:14:01;;;;;;;9.40;4.07;;;;;;;8.42;98.75;97318.28;10495516;28;20222;-64
2023/05/02 20:19:03;;;;;;;5.57;3.47;;;;;;;8.29;99.03;97330.72;10495293;28;20248;-64
2023/05/02 20:24:04;;;;;;;7.63;3.77;;;;;;;8.23;98.01;97336.44;10495021;28;20207;-64
2023/05/02 20:29:06;;;;;;;4.73;3.33;;;;;;;8.21;93.04;97324.34;10495194;28;20195;-64
2023/05/02 20:34:06;;;;;;;6.73;3.40;;;;;;;8.14;91.98;97317.97;10494360;28;20219;-65
2023/05/02 20:39:07;;;;;;;9.07;3.70;;;;;;;8.14;91.21;97323.19;10494831;28;20188;-65
2023/05/02 20:44:08;;;;;;;4.80;3.37;;;;;;;8.10;92.51;97329.63;10493962;28;20242;-65
2023/05/02 20:49:08;;;;;;;10.87;3.50;;;;;;;8.03;92.36;97333.69;10494244;28;20195;-64
2023/05/02 20:54:08;;;;;;;6.83;3.57;;;;;;;7.83;93.72;97338.72;10486587;28;20218;-64
2023/05/02 20:59:10;;;;;;;8.30;3.90;;;;;;;7.89;94.44;97340.03;10458723;28;20200;-64
2023/05/02 21:04:10;;;;;;;15.03;3.87;;;;;;;7.91;94.33;97353.75;10452236;28;20694;-64
2023/05/02 21:09:11;;;;;;;7.27;3.50;;;;;;;7.97;93.95;97357.66;10452175;28;20219;-64
2023/05/02 21:14:11;;;;;;;12.30;4.10;;;;;;;7.86;94.69;97355.94;10452638;28;20306;-64
2023/05/02 21:19:11;;;;;;;7.73;3.80;;;;;;;7.94;94.73;97363.94;10452663;28;20230;-65
2023/05/02 21:24:12;;;;;;;9.13;3.87;;;;;;;7.83;95.85;97370.03;10452561;28;20294;-64
2023/05/02 21:29:13;;;;;;;8.83;3.53;;;;;;;7.78;96.56;97374.78;10452489;28;20195;-64
2023/05/02 21:34:14;;;;;;;6.63;3.43;;;;;;;7.87;96.18;97368.00;10452007;28;20762;-64
2023/05/02 21:39:15;;;;;;;7.60;3.40;;;;;;;7.92;96.37;97375.47;10452539;28;20190;-64
2023/05/02 21:44:15;;;;;;;7.63;3.90;;;;;;;7.79;96.90;97379.03;10451952;28;20219;-64
2023/05/02 21:49:15;;;;;;;8.00;3.93;;;;;;;7.78;98.51;97384.38;10452203;28;20566;-64
2023/05/02 21:54:16;;;;;;;8.63;3.57;;;;;;;7.66;100.00;97391.44;10451819;28;20644;-64
2023/05/02 21:59:16;;;;;;;12.23;4.10;;;;;;;7.77;99.82;97382.75;10451706;28;20543;-65
2023/05/02 22:04:17;;;;;;;8.80;4.07;;;;;;;7.61;100.00;97383.13;10451656;28;20744;-64
2023/05/02 22:09:18;;;;;;;8.10;3.87;;;;;;;7.60;100.00;97404.94;10454802;28;20661;-64
2023/05/02 22:14:18;;;;;;;8.20;3.87;;;;;;;7.57;100.00;97394.75;10459828;28;20228;-64
2023/05/02 22:19:18;;;;;;;9.53;3.60;;;;;;;7.57;100.00;97389.53;10459887;28;20666;-63
2023/05/02 22:24:19;;;;;;;11.23;4.00;;;;;;;7.54;100.00;97397.59;10459385;28;20712;-64
2023/05/02 22:29:20;;;;;;;6.93;4.33;;;;;;;7.60;100.00;97397.94;10459169;28;20243;-64
2023/05/02 22:34:20;;;;;;;6.13;4.07;;;;;;;7.49;100.00;97400.56;10458801;28;20236;-64
2023/05/02 22:39:20;;;;;;;10.83;4.77;;;;;;;7.37;100.00;97406.75;10458817;28;20241;-64
2023/05/02 22:44:21;;;;;;;10.80;4.33;;;;;;;7.32;100.00;97412.31;10458583;28;20196;-64
2023/05/02 22:49:22;;;;;;;8.33;4.13;;;;;;;7.32;100.00;97417.53;10458264;28;20238;-64
2023/05/02 22:54:23;;;;;;;8.60;4.70;;;;;;;7.26;100.00;97411.00;10457975;28;20251;-64
2023/05/02 22:59:23;;;;;;;10.00;4.70;;;;;;;7.14;100.00;97414.56;10458039;28;20200;-64
2023/05/02 23:04:24;;;;;;;10.77;4.40;;;;;;;7.12;100.00;97417.28;10496465;22;20716;-64
2023/05/02 23:09:24;;;;;;;10.13;4.73;;;;;;;7.08;100.00;97408.03;10538761;28;20687;-64
2023/05/02 23:14:24;;;;;;;6.83;4.50;;;;;;;7.08;100.00;97412.41;10540702;28;20249;-64
2023/05/02 23:19:25;;;;;;;8.40;4.90;;;;;;;6.95;100.00;97420.31;10539421;28;20560;-64
2023/05/02 23:24:25;;;;;;;11.50;4.90;;;;;;;6.89;100.00;97421.63;10540343;28;20765;-64